Time;durP1;ratioP1;P1;durP2;ratioP2;P2;SDS_P1;SDS_P2;PMS_P1;PMS_P2;Temp;Humidity;BMP_temperature;BMP_pressure;BME280_temperature;BME280_humidity;BME280_pressure;Samples;Min_cycle;Max_cycle;Signal;HPM_P1;HPM_P2
2023/04/03 00:01:02;;;;;;;3.42;1.60;;;;;;;8.54;98.24;100215.81;5090299;28;20127;-72
2023/04/03 00:03:28;;;;;;;3.72;1.80;;;;;;;8.58;97.73;100211.94;5090086;28;20032;-72
2023/04/03 00:05:54;;;;;;;2.97;1.70;;;;;;;8.63;98.11;100217.72;5090463;28;20074;-71
2023/04/03 00:08:20;;;;;;;3.95;1.80;;;;;;;8.58;99.14;100219.94;5072082;28;20474;-72
2023/04/03 00:10:45;;;;;;;2.90;1.48;;;;;;;8.57;99.98;100228.91;5090058;28;20043;-71
2023/04/03 00:13:11;;;;;;;2.78;1.60;;;;;;;8.58;100.00;100227.97;5071721;28;20031;-71
2023/04/03 00:15:38;;;;;;;4.13;1.60;;;;;;;8.55;100.00;100226.38;5090159;28;20040;-71
2023/04/03 00:18:04;;;;;;;5.65;1.80;;;;;;;8.53;100.00;100233.69;5089984;28;20106;-71
2023/04/03 00:20:30;;;;;;;2.97;1.80;;;;;;;8.48;100.00;100216.31;5089348;28;20032;-71
2023/04/03 00:22:55;;;;;;;2.78;1.67;;;;;;;8.56;100.00;100238.78;5089382;28;20051;-71
2023/04/03 00:25:21;;;;;;;2.25;1.55;;;;;;;8.52;100.00;100239.16;5070772;28;20020;-71
2023/04/03 00:27:46;;;;;;;3.25;1.92;;;;;;;8.42;100.00;100230.19;5088816;28;20421;-72
2023/04/03 00:30:14;;;;;;;2.65;1.70;;;;;;;8.49;100.00;100248.28;5088980;28;20093;-72
2023/04/03 00:32:40;;;;;;;3.50;1.85;;;;;;;8.42;100.00;100239.03;5088987;28;20027;-71
2023/04/03 00:35:06;;;;;;;2.20;1.50;;;;;;;8.44;100.00;100250.44;5088665;28;20110;-71
2023/04/03 00:37:32;;;;;;;2.13;1.40;;;;;;;8.48;100.00;100254.56;5070775;28;20141;-72
2023/04/03 00:39:57;;;;;;;2.30;1.42;;;;;;;8.47;100.00;100244.88;5070449;28;20028;-71
2023/04/03 00:42:23;;;;;;;2.38;1.60;;;;;;;8.46;100.00;100243.19;5088741;28;20028;-72
2023/04/03 00:44:49;;;;;;;2.83;1.50;;;;;;;8.49;100.00;100244.75;5088455;28;20080;-72
2023/04/03 00:47:17;;;;;;;2.60;1.30;;;;;;;8.47;100.00;100241.31;5088657;28;20024;-72
2023/04/03 00:49:45;;;;;;;2.00;1.60;;;;;;;8.41;100.00;100225.78;5089645;28;20028;-71
2023/04/03 00:52:15;;;;;;;3.20;1.17;;;;;;;8.51;100.00;100242.78;5089151;28;20036;-72
2023/04/03 00:54:43;;;;;;;1.60;1.40;;;;;;;8.47;100.00;100235.97;5089152;28;20430;-72
2023/04/03 00:57:10;;;;;;;2.53;1.42;;;;;;;8.51;100.00;100250.78;5070061;28;20515;-72
2023/04/03 00:59:41;;;;;;;2.45;1.55;;;;;;;8.38;100.00;100231.38;5088799;28;20694;-67
2023/04/03 01:02:07;;;;;;;1.85;1.10;;;;;;;8.41;100.00;100232.00;5088220;28;20040;-68
2023/04/03 01:04:35;;;;;;;2.42;1.60;;;;;;;8.48;100.00;100243.06;5088474;28;20028;-67
2023/04/03 01:07:08;;;;;;;1.67;1.27;;;;;;;8.40;100.00;100234.78;5088262;28;20637;-68
2023/04/03 01:09:34;;;;;;;2.58;1.75;;;;;;;8.51;100.00;100262.34;5088412;28;20028;-68
2023/04/03 01:12:27;;;;;;;2.05;1.73;;;;;;;8.46;100.00;100256.53;5088378;28;20044;-67
2023/04/03 01:14:58;;;;;;;3.78;1.75;;;;;;;8.52;100.00;100255.19;5088116;28;20097;-67
2023/04/03 01:17:34;;;;;;;2.85;1.33;;;;;;;8.39;100.00;100235.75;5087893;28;20032;-67
2023/04/03 01:20:30;;;;;;;2.00;1.40;;;;;;;8.48;100.00;100265.25;5088271;28;20103;-68
2023/04/03 01:23:17;;;;;;;2.05;1.38;;;;;;;8.51;100.00;100262.34;5070522;28;20058;-68
2023/04/03 01:25:49;;;;;;;1.63;1.40;;;;;;;8.49;100.00;100261.63;5087753;28;20032;-68
2023/04/03 01:28:20;;;;;;;4.07;1.42;;;;;;;8.48;100.00;100264.44;5087154;28;20418;-68
2023/04/03 01:31:02;;;;;;;2.70;2.05;;;;;;;8.40;100.00;100246.34;5069634;28;20399;-72
2023/04/03 01:33:27;;;;;;;2.75;1.55;;;;;;;8.46;100.00;100253.88;5087753;28;20566;-71
2023/04/03 01:35:52;;;;;;;1.80;1.42;;;;;;;8.48;100.00;100265.25;5088399;28;20349;-67
2023/04/03 01:38:18;;;;;;;2.75;1.70;;;;;;;8.47;100.00;100257.38;5087048;28;20020;-68
2023/04/03 01:40:43;;;;;;;1.30;1.20;;;;;;;8.45;100.00;100251.31;5087633;28;20040;-67
2023/04/03 01:43:09;;;;;;;2.08;1.60;;;;;;;8.36;100.00;100239.53;5087358;28;20131;-67
2023/04/03 01:45:34;;;;;;;1.60;1.33;;;;;;;8.48;100.00;100253.75;5087773;28;20024;-67
2023/04/03 01:48:00;;;;;;;4.10;1.77;;;;;;;8.49;100.00;100245.59;5087391;28;20383;-67
2023/04/03 01:50:25;;;;;;;2.03;1.73;;;;;;;8.43;100.00;100248.75;5087525;28;20032;-67
2023/04/03 01:52:51;;;;;;;2.08;1.60;;;;;;;8.47;100.00;100246.69;5087470;28;20582;-67
2023/04/03 01:55:16;;;;;;;1.95;1.50;;;;;;;8.49;100.00;100255.44;5087156;28;20119;-67
2023/04/03 01:57:42;;;;;;;2.38;1.60;;;;;;;8.39;100.00;100243.78;5087319;28;20085;-67
2023/04/03 02:00:08;;;;;;;2.40;1.80;;;;;;;8.44;100.00;100257.59;5068454;28;20084;-66
2023/04/03 02:02:33;;;;;;;2.40;1.85;;;;;;;8.40;100.00;100256.16;5087536;28;20089;-67
2023/04/03 02:04:59;;;;;;;2.50;2.22;;;;;;;8.42;100.00;100265.75;5087564;28;20024;-67
2023/04/03 02:07:25;;;;;;;2.05;1.77;;;;;;;8.41;100.00;100253.38;5087106;28;20738;-67
2023/04/03 02:09:50;;;;;;;3.05;2.30;;;;;;;8.38;100.00;100244.72;5087168;28;20028;-67
2023/04/03 02:12:16;;;;;;;3.53;2.22;;;;;;;8.40;100.00;100242.81;5086532;28;20016;-67
2023/04/03 02:14:41;;;;;;;3.70;2.60;;;;;;;8.44;100.00;100258.47;5068942;28;20089;-67
2023/04/03 02:17:08;;;;;;;2.70;2.10;;;;;;;8.50;100.00;100265.13;5086865;28;20032;-66
2023/04/03 02:19:35;;;;;;;2.45;1.95;;;;;;;8.49;100.00;100266.13;5087174;28;20519;-67
2023/04/03 02:22:01;;;;;;;3.67;2.55;;;;;;;8.48;100.00;100272.44;5086796;28;20043;-67
2023/04/03 02:24:27;;;;;;;3.08;2.30;;;;;;;8.31;100.00;100239.03;5086890;28;20020;-67
2023/04/03 02:26:53;;;;;;;2.72;2.25;;;;;;;8.41;100.00;100269.41;5086858;28;20054;-67
2023/04/03 02:29:19;;;;;;;3.95;1.88;;;;;;;8.32;100.00;100251.41;5086570;28;20058;-72
2023/04/03 02:31:44;;;;;;;3.90;2.00;;;;;;;8.39;100.00;100273.19;5087580;28;20043;-72
2023/04/03 02:34:10;;;;;;;3.20;1.90;;;;;;;8.48;100.00;100275.13;5087089;28;20070;-72
2023/04/03 02:36:36;;;;;;;3.60;1.90;;;;;;;8.42;100.00;100276.44;5086871;28;20020;-72
2023/04/03 02:39:01;;;;;;;4.28;2.13;;;;;;;8.32;100.00;100264.78;5086844;28;20123;-72
2023/04/03 02:41:33;;;;;;;2.33;1.70;;;;;;;8.40;100.00;100277.53;5086952;28;20085;-72
2023/04/03 02:43:59;;;;;;;1.80;1.60;;;;;;;8.42;100.00;100283.63;5087262;28;20040;-72
2023/04/03 02:46:24;;;;;;;2.67;1.95;;;;;;;8.36;100.00;100282.28;5068311;28;20020;-72
2023/04/03 02:48:50;;;;;;;2.58;1.65;;;;;;;8.36;100.00;100284.09;5086657;28;20030;-72
2023/04/03 02:51:15;;;;;;;1.80;1.42;;;;;;;8.37;100.00;100281.31;5086475;28;20028;-72
2023/04/03 02:53:41;;;;;;;2.47;1.77;;;;;;;8.38;100.00;100290.16;5087383;28;20019;-72
2023/04/03 02:56:06;;;;;;;2.72;1.95;;;;;;;8.27;100.00;100264.31;5086641;28;20475;-72
2023/04/03 02:58:32;;;;;;;2.17;1.98;;;;;;;8.18;100.00;100258.78;5086763;28;20039;-72
2023/04/03 03:00:57;;;;;;;2.40;2.00;;;;;;;8.32;100.00;100288.00;5086471;28;20063;-72
2023/04/03 03:03:23;;;;;;;2.13;1.80;;;;;;;8.28;100.00;100284.72;5086366;28;20032;-72
2023/04/03 03:05:48;;;;;;;2.28;1.52;;;;;;;8.23;100.00;100278.03;5086501;28;20463;-72
2023/04/03 03:08:14;;;;;;;2.97;2.25;;;;;;;8.26;100.00;100286.63;5086225;28;20103;-71
2023/04/03 03:10:39;;;;;;;2.72;1.75;;;;;;;8.28;100.00;100282.03;5084918;28;20032;-71
2023/04/03 03:13:05;;;;;;;2.95;2.03;;;;;;;8.26;100.00;100285.81;5086100;28;20024;-72
2023/04/03 03:15:31;;;;;;;2.95;1.95;;;;;;;8.26;100.00;100289.31;5086611;28;20158;-72
2023/04/03 03:17:56;;;;;;;2.17;1.95;;;;;;;8.15;100.00;100278.59;5086525;28;20685;-71
2023/04/03 03:20:21;;;;;;;2.85;2.17;;;;;;;8.27;100.00;100295.50;5085779;28;20188;-71
2023/04/03 03:22:47;;;;;;;2.80;2.28;;;;;;;8.26;100.00;100299.16;5086759;28;20028;-71
2023/04/03 03:25:12;;;;;;;3.63;1.92;;;;;;;8.22;100.00;100287.84;5086332;28;20030;-67
2023/04/03 03:27:38;;;;;;;3.58;2.10;;;;;;;8.27;100.00;100290.16;5068166;28;20505;-67
2023/04/03 03:30:04;;;;;;;2.85;2.17;;;;;;;8.20;100.00;100292.47;5086098;28;20043;-67
2023/04/03 03:32:30;;;;;;;2.30;1.58;;;;;;;8.21;100.00;100285.28;5086591;28;20035;-67
2023/04/03 03:34:55;;;;;;;2.35;1.75;;;;;;;8.21;100.00;100291.47;5085953;28;20376;-67
2023/04/03 03:37:21;;;;;;;2.88;2.13;;;;;;;8.19;100.00;100300.59;5086182;28;20047;-67
2023/04/03 03:39:46;;;;;;;2.63;2.13;;;;;;;8.17;100.00;100292.69;5085862;28;20534;-66
2023/04/03 03:42:11;;;;;;;2.33;1.83;;;;;;;8.22;100.00;100298.53;5089370;28;20069;-67
2023/04/03 03:44:37;;;;;;;2.10;1.90;;;;;;;8.20;100.00;100303.13;5094578;28;20121;-67
2023/04/03 03:47:02;;;;;;;2.60;2.40;;;;;;;8.14;100.00;100300.09;5096888;28;20688;-72
2023/04/03 03:49:28;;;;;;;2.47;2.08;;;;;;;8.01;100.00;100280.66;5093918;28;20020;-72
2023/04/03 03:51:53;;;;;;;5.00;2.47;;;;;;;7.99;100.00;100277.22;5094792;28;20085;-71
2023/04/03 03:54:19;;;;;;;3.55;2.50;;;;;;;8.10;100.00;100288.78;5088189;28;20147;-71
2023/04/03 03:56:45;;;;;;;4.18;2.60;;;;;;;8.01;100.00;100281.50;5085938;28;20016;-71
2023/04/03 03:59:12;;;;;;;3.00;2.42;;;;;;;8.07;100.00;100305.06;5085895;28;20119;-71
2023/04/03 04:01:37;;;;;;;6.93;5.10;;;;;;;8.19;100.00;100279.22;5085644;28;20059;-71
2023/04/03 04:04:03;;;;;;;8.73;5.80;;;;;;;8.18;100.00;100305.06;5067508;28;20121;-71
2023/04/03 04:06:28;;;;;;;11.75;7.63;;;;;;;7.96;100.00;100262.31;5080233;28;20038;-66
2023/04/03 04:08:54;;;;;;;12.95;9.13;;;;;;;8.07;100.00;100301.53;5066271;28;20056;-66
2023/04/03 04:11:21;;;;;;;13.73;10.15;;;;;;;7.87;100.00;100291.56;5083561;28;20071;-67
2023/04/03 04:13:46;;;;;;;15.45;11.75;;;;;;;7.88;100.00;100309.25;5084517;28;20654;-67
2023/04/03 04:16:12;;;;;;;13.25;10.25;;;;;;;7.69;100.00;100282.28;5081139;28;20114;-67
2023/04/03 04:18:37;;;;;;;14.82;10.68;;;;;;;7.73;100.00;100294.41;5084286;28;20839;-67
2023/04/03 04:21:03;;;;;;;14.50;10.75;;;;;;;7.77;100.00;100304.75;5086288;28;20028;-67
2023/04/03 04:23:28;;;;;;;13.10;10.80;;;;;;;7.69;100.00;100288.47;5069992;28;20035;-72
2023/04/03 04:25:53;;;;;;;13.23;10.10;;;;;;;7.74;100.00;100299.63;5090026;28;20036;-72
2023/04/03 04:28:19;;;;;;;13.55;10.38;;;;;;;7.75;100.00;100301.34;5087792;28;20028;-72
2023/04/03 04:30:45;;;;;;;14.90;11.73;;;;;;;7.76;100.00;100312.88;5093415;28;20039;-73
2023/04/03 04:33:11;;;;;;;13.50;9.93;;;;;;;7.68;100.00;100294.78;5079126;28;20016;-73
2023/04/03 04:35:36;;;;;;;13.55;10.48;;;;;;;7.71;100.00;100301.72;5100104;28;20028;-73
2023/04/03 04:38:02;;;;;;;14.90;10.32;;;;;;;7.76;100.00;100313.72;5097533;28;20469;-73
2023/04/03 04:40:28;;;;;;;13.27;10.07;;;;;;;7.73;100.00;100308.63;5099594;28;20144;-72
2023/04/03 04:42:54;;;;;;;13.80;10.50;;;;;;;7.66;100.00;100311.88;5099538;28;20028;-72
2023/04/03 04:45:20;;;;;;;12.70;9.35;;;;;;;7.77;99.15;100318.09;5097508;28;20034;-72
2023/04/03 04:47:45;;;;;;;14.25;9.95;;;;;;;7.69;99.44;100314.31;5075481;28;20043;-72
2023/04/03 04:50:11;;;;;;;11.65;9.55;;;;;;;7.57;99.88;100309.88;5085139;28;20020;-72
2023/04/03 04:52:37;;;;;;;14.23;10.20;;;;;;;7.60;99.53;100318.53;5088464;28;20028;-72
2023/04/03 04:55:03;;;;;;;12.48;9.45;;;;;;;7.59;99.26;100327.50;5070923;28;20036;-72
2023/04/03 04:57:29;;;;;;;12.02;9.90;;;;;;;7.53;98.34;100319.09;5089400;28;20100;-72
2023/04/03 04:59:55;;;;;;;13.95;9.95;;;;;;;7.52;98.87;100330.75;5089306;28;20040;-72
2023/04/03 05:02:20;;;;;;;13.68;9.55;;;;;;;7.52;99.74;100342.28;5089314;28;20119;-73
2023/04/03 05:04:46;;;;;;;13.32;9.75;;;;;;;7.44;97.72;100341.13;5088628;28;20053;-73
2023/04/03 05:07:11;;;;;;;14.38;9.65;;;;;;;7.55;94.22;100323.38;5089004;28;20032;-73
2023/04/03 05:09:36;;;;;;;12.57;9.55;;;;;;;7.40;95.58;100329.84;5071432;28;20063;-73
2023/04/03 05:12:03;;;;;;;12.95;9.30;;;;;;;7.48;95.51;100345.28;5089064;28;20506;-73
2023/04/03 05:14:29;;;;;;;11.82;8.98;;;;;;;7.30;96.60;100335.97;5088733;28;20020;-73
2023/04/03 05:16:54;;;;;;;13.55;9.95;;;;;;;7.28;97.61;100335.25;5087216;28;20020;-72
2023/04/03 05:19:22;;;;;;;13.82;10.10;;;;;;;7.33;97.59;100347.28;5088094;28;20031;-73
2023/04/03 05:21:48;;;;;;;16.17;10.23;;;;;;;7.33;97.96;100349.94;5088812;28;20085;-73
2023/04/03 05:24:15;;;;;;;13.35;9.82;;;;;;;7.31;98.35;100343.00;5088449;28;20016;-73
2023/04/03 05:26:41;;;;;;;13.52;9.75;;;;;;;7.36;99.26;100352.41;5088655;28;20027;-73
2023/04/03 05:29:07;;;;;;;13.10;9.90;;;;;;;7.39;99.20;100356.66;5088670;28;20036;-73
2023/04/03 05:31:32;;;;;;;12.95;9.60;;;;;;;7.34;98.66;100348.13;5087399;28;20046;-73
2023/04/03 05:33:58;;;;;;;12.15;9.43;;;;;;;7.56;96.23;100361.56;5087876;28;20077;-73
2023/04/03 05:36:24;;;;;;;13.13;8.95;;;;;;;7.49;97.19;100355.00;5084081;28;20123;-73
2023/04/03 05:38:49;;;;;;;13.48;9.73;;;;;;;7.46;97.91;100358.75;5081752;28;20075;-74
2023/04/03 05:41:15;;;;;;;15.05;9.65;;;;;;;7.47;98.23;100356.91;5068000;28;20102;-74
2023/04/03 05:43:41;;;;;;;13.40;9.68;;;;;;;7.52;97.52;100350.28;5088534;28;20024;-68
2023/04/03 05:46:20;;;;;;;13.02;9.48;;;;;;;7.48;97.95;100355.97;5072939;28;20039;-67
2023/04/03 05:48:46;;;;;;;13.23;9.75;;;;;;;7.57;98.70;100369.47;5070542;28;20730;-68
2023/04/03 05:51:22;;;;;;;12.57;9.10;;;;;;;7.78;95.13;100369.66;5095062;28;20134;-68
2023/04/03 05:53:47;;;;;;;12.43;9.77;;;;;;;7.55;95.37;100352.72;5085849;28;20177;-69
2023/04/03 05:56:14;;;;;;;13.90;10.18;;;;;;;7.43;96.56;100336.78;5088193;28;20083;-73
2023/04/03 05:58:40;;;;;;;13.63;9.95;;;;;;;7.67;97.05;100374.97;5069403;28;20028;-74
2023/04/03 06:01:05;;;;;;;11.27;9.05;;;;;;;7.71;97.43;100379.13;5088829;28;20052;-74
2023/04/03 06:03:31;;;;;;;11.55;9.07;;;;;;;7.75;96.24;100372.56;5087403;28;20027;-75
2023/04/03 06:05:57;;;;;;;11.63;9.20;;;;;;;7.61;95.48;100357.59;5076665;28;20055;-71
2023/04/03 06:08:23;;;;;;;12.35;8.68;;;;;;;7.74;95.92;100378.88;5090426;28;20473;-71
2023/04/03 06:10:50;;;;;;;13.02;9.18;;;;;;;7.81;94.87;100386.31;5095664;28;20020;-71
2023/04/03 06:13:15;;;;;;;15.15;9.60;;;;;;;7.80;94.93;100383.78;5088430;28;20024;-71
2023/04/03 06:15:41;;;;;;;13.93;9.35;;;;;;;7.78;95.95;100377.69;5085542;28;20071;-71
2023/04/03 06:18:07;;;;;;;12.90;10.13;;;;;;;7.89;96.52;100391.91;5096289;28;20034;-71
2023/04/03 06:20:32;;;;;;;10.73;8.35;;;;;;;8.04;92.60;100392.56;5097082;28;20027;-69
2023/04/03 06:22:58;;;;;;;11.63;8.77;;;;;;;8.04;93.65;100388.09;5093515;28;20034;-70
2023/04/03 06:25:24;;;;;;;13.55;9.32;;;;;;;8.08;93.82;100391.38;5069332;28;20039;-71
2023/04/03 06:27:49;;;;;;;15.48;9.98;;;;;;;8.03;93.41;100372.19;5069621;28;20055;-71
2023/04/03 06:30:15;;;;;;;12.30;9.68;;;;;;;8.11;93.16;100372.44;5089782;28;20547;-71
2023/04/03 06:32:40;;;;;;;12.48;9.43;;;;;;;8.20;92.83;100385.97;5091500;28;20036;-71
2023/04/03 06:35:06;;;;;;;12.43;9.40;;;;;;;8.31;92.33;100388.66;5088436;28;20040;-71
2023/04/03 06:37:32;;;;;;;11.75;9.20;;;;;;;8.20;92.46;100355.72;5087185;28;20028;-71
2023/04/03 06:40:01;;;;;;;13.57;10.27;;;;;;;8.49;92.47;100386.41;5087877;28;20161;-70
2023/04/03 06:42:26;;;;;;;10.77;8.68;;;;;;;8.59;91.68;100388.22;5087600;28;20026;-71
2023/04/03 06:44:52;;;;;;;12.60;8.88;;;;;;;8.65;89.12;100376.19;5086779;28;20016;-71
2023/04/03 06:47:17;;;;;;;12.75;9.38;;;;;;;8.73;88.56;100371.09;5091499;28;20497;-71
2023/04/03 06:49:43;;;;;;;11.48;8.52;;;;;;;8.83;87.58;100396.13;5097796;28;20039;-71
2023/04/03 06:52:09;;;;;;;12.30;9.35;;;;;;;8.85;86.80;100397.72;5071514;28;20047;-71
2023/04/03 06:54:35;;;;;;;10.88;8.80;;;;;;;8.95;84.66;100392.47;5092565;28;20032;-71
2023/04/03 06:57:01;;;;;;;10.90;7.93;;;;;;;8.97;83.65;100393.22;5073440;28;20502;-72
2023/04/03 06:59:27;;;;;;;9.75;8.02;;;;;;;8.87;84.43;100385.06;5071331;28;20063;-71
2023/04/03 07:01:53;;;;;;;11.02;8.30;;;;;;;8.96;84.25;100400.38;5090273;28;20055;-74
2023/04/03 07:04:20;;;;;;;11.15;8.50;;;;;;;9.00;84.03;100417.03;5091069;28;20479;-75
2023/04/03 07:06:46;;;;;;;10.77;7.70;;;;;;;8.97;84.24;100411.94;5068697;28;20039;-75
2023/04/03 07:09:12;;;;;;;11.05;8.60;;;;;;;8.98;82.71;100418.97;5061952;28;20125;-75
2023/04/03 07:11:38;;;;;;;10.60;8.63;;;;;;;9.00;82.45;100420.56;5071956;28;20036;-75
2023/04/03 07:14:03;;;;;;;12.73;8.55;;;;;;;9.01;81.24;100421.41;5084843;28;20027;-75
2023/04/03 07:16:32;;;;;;;12.13;8.32;;;;;;;8.81;82.18;100400.75;5084779;28;20095;-75
2023/04/03 07:18:57;;;;;;;11.05;8.43;;;;;;;8.95;82.44;100430.78;5086862;28;20066;-75
2023/04/03 07:21:23;;;;;;;11.43;8.73;;;;;;;8.95;81.88;100433.47;5085862;28;20028;-75
2023/04/03 07:23:49;;;;;;;13.05;8.55;;;;;;;8.83;82.60;100405.00;5085633;28;20028;-75
2023/04/03 07:26:15;;;;;;;11.40;8.60;;;;;;;9.00;83.31;100436.59;5081217;28;20054;-75
2023/04/03 07:28:41;;;;;;;10.57;8.73;;;;;;;9.03;83.30;100432.84;5069589;28;20027;-75
2023/04/03 07:31:11;;;;;;;12.55;7.82;;;;;;;9.04;82.66;100432.75;5069943;28;20043;-75
2023/04/03 07:33:38;;;;;;;8.90;7.35;;;;;;;8.91;80.52;100410.59;5088102;28;20027;-75
2023/04/03 07:36:06;;;;;;;9.23;7.57;;;;;;;9.08;79.96;100420.81;5069893;28;20497;-75
2023/04/03 07:38:32;;;;;;;10.52;7.47;;;;;;;9.15;81.22;100431.84;5087746;28;20120;-75
2023/04/03 07:40:58;;;;;;;10.20;7.88;;;;;;;9.22;81.17;100436.59;5087314;28;20390;-76
2023/04/03 07:43:24;;;;;;;8.68;7.40;;;;;;;9.25;80.25;100433.69;5068629;28;20046;-75
2023/04/03 07:45:50;;;;;;;8.80;7.22;;;;;;;9.32;80.53;100439.38;5069585;28;20028;-76
2023/04/03 07:48:18;;;;;;;10.25;7.50;;;;;;;9.29;78.57;100421.75;5087237;28;20023;-75
2023/04/03 07:50:44;;;;;;;7.95;6.75;;;;;;;9.23;78.54;100408.84;5087292;28;20463;-75
2023/04/03 07:53:10;;;;;;;8.18;6.80;;;;;;;9.47;79.23;100431.91;5086968;28;20035;-75
2023/04/03 07:55:42;;;;;;;9.23;7.13;;;;;;;9.52;79.38;100435.09;5087944;28;20047;-75
2023/04/03 07:58:11;;;;;;;8.50;6.97;;;;;;;9.69;77.90;100439.91;5072769;28;20054;-69
2023/04/03 08:00:38;;;;;;;10.60;7.57;;;;;;;9.70;78.64;100428.25;5090524;28;20056;-69
2023/04/03 08:03:03;;;;;;;10.00;6.68;;;;;;;9.90;77.20;100430.13;5072359;28;20066;-69
2023/04/03 08:05:29;;;;;;;7.90;6.38;;;;;;;9.95;77.89;100415.34;5090296;28;20063;-70
2023/04/03 08:07:54;;;;;;;8.45;7.07;;;;;;;10.20;76.12;100432.94;5090429;28;20050;-70
2023/04/03 08:10:20;;;;;;;7.55;6.10;;;;;;;10.23;74.65;100420.13;5089454;28;20093;-70
2023/04/03 08:12:46;;;;;;;10.70;6.88;;;;;;;10.59;73.13;100441.13;5090450;28;20449;-70
2023/04/03 08:15:12;;;;;;;7.90;6.45;;;;;;;10.70;71.79;100416.88;5090039;28;20024;-70
2023/04/03 08:17:37;;;;;;;8.35;5.78;;;;;;;10.94;72.99;100414.72;5094309;28;20039;-70
2023/04/03 08:20:06;;;;;;;10.15;6.78;;;;;;;11.31;69.92;100423.94;5110764;28;20080;-70
2023/04/03 08:22:33;;;;;;;7.60;6.65;;;;;;;11.49;68.29;100433.00;5107007;28;20072;-70
2023/04/03 08:24:58;;;;;;;7.43;5.63;;;;;;;11.67;65.41;100451.19;5089680;28;20503;-70
2023/04/03 08:27:24;;;;;;;9.00;4.60;;;;;;;11.59;64.58;100449.16;5071761;28;20121;-70
2023/04/03 08:29:50;;;;;;;5.95;5.10;;;;;;;11.41;65.17;100432.88;5090004;28;20077;-70
2023/04/03 08:32:15;;;;;;;6.45;5.60;;;;;;;11.76;64.55;100448.53;5089961;28;20463;-70
2023/04/03 08:34:41;;;;;;;7.07;5.75;;;;;;;12.38;62.90;100434.69;5089556;28;20023;-70
2023/04/03 08:37:06;;;;;;;7.03;5.80;;;;;;;12.57;60.54;100440.88;5092923;28;20106;-70
2023/04/03 08:39:32;;;;;;;5.65;5.10;;;;;;;12.64;59.78;100458.13;5070887;28;20024;-70
2023/04/03 08:42:02;;;;;;;6.20;5.45;;;;;;;12.41;60.12;100437.91;5090020;28;20506;-71
2023/04/03 08:44:37;;;;;;;6.85;5.28;;;;;;;12.42;60.20;100457.59;5089734;28;20598;-70
2023/04/03 08:47:02;;;;;;;6.05;5.45;;;;;;;12.27;60.77;100453.66;5074080;28;20031;-71
2023/04/03 08:49:33;;;;;;;7.32;5.38;;;;;;;12.14;60.35;100439.63;5089482;28;20024;-70
2023/04/03 08:52:04;;;;;;;5.78;5.18;;;;;;;12.05;61.08;100433.28;5071417;28;20064;-70
2023/04/03 08:54:37;;;;;;;7.55;5.32;;;;;;;11.79;61.88;100423.19;5088705;28;20032;-76
2023/04/03 08:57:06;;;;;;;4.85;4.35;;;;;;;11.91;59.68;100457.88;5071778;28;20028;-77
2023/04/03 08:59:37;;;;;;;6.13;5.50;;;;;;;11.91;59.84;100448.97;5089235;28;20517;-76
2023/04/03 09:02:17;;;;;;;6.13;5.00;;;;;;;11.87;60.93;100452.94;5071671;28;20032;-76
2023/04/03 09:04:42;;;;;;;4.65;4.00;;;;;;;11.91;61.20;100457.88;5090247;28;20030;-76
2023/04/03 09:07:17;;;;;;;6.20;4.85;;;;;;;11.87;61.28;100452.94;5088896;28;20031;-76
2023/04/03 09:09:45;;;;;;;5.28;4.28;;;;;;;11.73;59.46;100447.97;5089596;28;20449;-76
2023/04/03 09:12:18;;;;;;;8.30;4.03;;;;;;;11.77;58.58;100470.88;5071166;28;20042;-76
2023/04/03 09:15:08;;;;;;;13.48;7.78;;;;;;;11.68;58.87;100458.25;5088837;28;20028;-77
2023/04/03 09:18:13;;;;;;;12.40;8.27;;;;;;;11.59;60.52;100462.59;5086915;28;20032;-76
2023/04/03 09:20:43;;;;;;;7.32;5.30;;;;;;;11.63;61.08;100465.88;5091796;28;20112;-77
2023/04/03 09:23:19;;;;;;;5.47;4.80;;;;;;;11.66;61.71;100458.41;5072171;28;20054;-76
2023/04/03 09:25:45;;;;;;;5.03;4.30;;;;;;;11.85;60.01;100460.28;5089656;28;20118;-76
2023/04/03 09:28:11;;;;;;;6.90;4.30;;;;;;;11.98;59.13;100460.84;5089483;28;20020;-76
2023/04/03 09:30:37;;;;;;;4.95;4.18;;;;;;;12.16;58.18;100469.94;5089720;28;20024;-76
2023/04/03 09:33:04;;;;;;;5.88;4.25;;;;;;;12.25;58.73;100469.09;5089238;28;20046;-76
2023/04/03 09:35:36;;;;;;;5.15;4.10;;;;;;;12.21;58.67;100455.06;5098889;28;20386;-76
2023/04/03 09:38:18;;;;;;;6.10;4.55;;;;;;;12.30;57.96;100469.50;5091324;28;20020;-76
2023/04/03 09:40:47;;;;;;;4.65;4.15;;;;;;;12.38;56.58;100475.03;5107211;28;20103;-75
2023/04/03 09:43:30;;;;;;;4.43;3.88;;;;;;;12.22;57.10;100464.81;5084201;28;20552;-69
2023/04/03 09:46:16;;;;;;;4.00;3.23;;;;;;;12.11;56.54;100459.59;5082256;28;20085;-69
2023/04/03 09:48:57;;;;;;;4.43;4.03;;;;;;;12.12;57.56;100472.03;5074412;28;20102;-69
2023/04/03 09:51:27;;;;;;;4.45;3.90;;;;;;;12.06;57.44;100477.16;5070327;28;20040;-70
2023/04/03 09:53:53;;;;;;;5.65;3.80;;;;;;;12.02;56.87;100462.28;5060086;28;20036;-69
2023/04/03 09:56:22;;;;;;;4.63;3.85;;;;;;;11.96;56.20;100455.59;5064055;28;20117;-69
2023/04/03 09:58:51;;;;;;;4.50;3.40;;;;;;;11.93;56.94;100471.19;5073989;28;20044;-69
2023/04/03 10:01:38;;;;;;;5.28;3.63;;;;;;;11.84;57.42;100454.06;5054063;28;20060;-69
2023/04/03 10:04:14;;;;;;;4.43;3.42;;;;;;;11.94;57.18;100459.44;5056636;28;20116;-69
2023/04/03 10:06:49;;;;;;;3.38;2.78;;;;;;;11.92;55.66;100450.66;5082600;28;20036;-75
2023/04/03 10:09:22;;;;;;;3.75;3.33;;;;;;;12.10;55.25;100473.19;5080368;28;20030;-75
2023/04/03 10:12:06;;;;;;;3.00;2.67;;;;;;;12.03;55.55;100447.84;5096023;28;20403;-75
2023/04/03 10:14:34;;;;;;;3.83;3.08;;;;;;;12.23;55.08;100471.06;5087884;28;20488;-74
2023/04/03 10:17:14;;;;;;;3.63;2.60;;;;;;;12.23;54.55;100458.47;5088324;28;20082;-75
2023/04/03 10:19:53;;;;;;;4.05;3.38;;;;;;;12.34;54.74;100466.38;5088427;28;20032;-75
2023/04/03 10:22:21;;;;;;;4.20;3.53;;;;;;;12.32;55.52;100460.28;5088152;28;20036;-69
2023/04/03 10:25:05;;;;;;;2.97;2.58;;;;;;;12.42;55.95;100463.84;5087939;28;20020;-71
2023/04/03 10:27:48;;;;;;;2.63;2.33;;;;;;;12.30;54.89;100451.53;5067473;28;20058;-69
2023/04/03 10:30:14;;;;;;;3.40;2.70;;;;;;;12.38;54.96;100462.41;5087573;28;20543;-69
2023/04/03 10:32:45;;;;;;;3.55;2.88;;;;;;;12.51;55.03;100462.13;5087595;28;20027;-69
2023/04/03 10:35:28;;;;;;;4.28;2.50;;;;;;;12.70;52.92;100443.25;5088212;28;20023;-75
2023/04/03 10:38:00;;;;;;;3.10;2.70;;;;;;;12.90;52.79;100447.59;5087781;28;20020;-75
2023/04/03 10:40:43;;;;;;;3.75;2.90;;;;;;;13.02;53.95;100454.53;5069378;28;20048;-76
2023/04/03 10:43:29;;;;;;;3.13;2.53;;;;;;;13.13;53.31;100443.59;5069282;28;20024;-76
2023/04/03 10:46:07;;;;;;;3.13;2.55;;;;;;;13.12;53.06;100441.88;5087810;28;20028;-75
2023/04/03 10:48:56;;;;;;;2.97;2.67;;;;;;;13.13;52.62;100441.72;5069219;28;20032;-76
2023/04/03 10:51:31;;;;;;;4.43;1.90;;;;;;;13.19;51.29;100443.81;5087208;28;20024;-76
2023/04/03 10:54:08;;;;;;;1.90;1.70;;;;;;;13.20;50.77;100426.69;5087587;28;20102;-75
2023/04/03 10:56:41;;;;;;;2.35;1.92;;;;;;;13.20;51.14;100424.00;5087403;28;20085;-76
2023/04/03 10:59:29;;;;;;;3.17;2.10;;;;;;;13.21;50.27;100432.91;5087513;28;20464;-75
2023/04/03 11:02:00;;;;;;;2.47;2.22;;;;;;;13.17;51.22;100416.22;5087166;28;20032;-76
2023/04/03 11:04:29;;;;;;;2.50;2.10;;;;;;;13.26;51.37;100423.38;5087599;28;20016;-75
2023/04/03 11:07:12;;;;;;;1.95;1.67;;;;;;;13.29;51.15;100424.94;5087157;28;20032;-76
2023/04/03 11:09:43;;;;;;;4.35;1.90;;;;;;;13.29;50.96;100416.88;5087216;28;20051;-76
2023/04/03 11:12:33;;;;;;;2.38;2.17;;;;;;;13.31;51.27;100417.53;5069238;28;20487;-75
2023/04/03 11:15:01;;;;;;;3.30;2.13;;;;;;;13.20;51.26;100398.91;5073314;28;20028;-75
2023/04/03 11:17:34;;;;;;;2.00;1.55;;;;;;;13.36;51.34;100407.19;5087128;28;20024;-76
2023/04/03 11:20:02;;;;;;;1.77;1.67;;;;;;;13.41;50.70;100407.56;5086529;28;20051;-75
2023/04/03 11:22:38;;;;;;;2.05;1.85;;;;;;;13.42;48.71;100393.13;5086965;28;20461;-75
2023/04/03 11:25:10;;;;;;;1.88;1.70;;;;;;;13.40;49.97;100403.19;5087275;28;20020;-75
2023/04/03 11:27:47;;;;;;;2.60;2.00;;;;;;;13.37;49.20;100390.88;5086785;28;20092;-76
2023/04/03 11:30:18;;;;;;;1.30;1.15;;;;;;;13.44;47.82;100369.53;5087745;28;20120;-75